sensor_id;sensor_type;location;lat;lon;timestamp;temperature;humidity
2465;DHT22;1244;54.326;10.074;2022-12-10T00:02:10;0.10;99.90
2465;DHT22;1244;54.326;10.074;2022-12-10T00:04:35;0.10;99.90
2465;DHT22;1244;54.326;10.074;2022-12-10T00:07:01;0.10;99.90
2465;DHT22;1244;54.326;10.074;2022-12-10T00:09:26;0.10;99.90
2465;DHT22;1244;54.326;10.074;2022-12-10T00:11:52;0.10;99.90
2465;DHT22;1244;54.326;10.074;2022-12-10T00:14:17;0.10;99.90
2465;DHT22;1244;54.326;10.074;2022-12-10T00:16:43;0.20;99.90
2465;DHT22;1244;54.326;10.074;2022-12-10T00:19:08;0.20;99.90
2465;DHT22;1244;54.326;10.074;2022-12-10T00:21:35;0.20;99.90
2465;DHT22;1244;54.326;10.074;2022-12-10T00:24:01;0.20;99.90
2465;DHT22;1244;54.326;10.074;2022-12-10T00:26:32;0.10;99.90
2465;DHT22;1244;54.326;10.074;2022-12-10T00:29:00;0.10;99.90
2465;DHT22;1244;54.326;10.074;2022-12-10T00:31:28;0.10;99.90
2465;DHT22;1244;54.326;10.074;2022-12-10T00:33:58;0.10;99.90
2465;DHT22;1244;54.326;10.074;2022-12-10T00:36:28;0.00;99.90
2465;DHT22;1244;54.326;10.074;2022-12-10T00:38:54;0.00;99.90
2465;DHT22;1244;54.326;10.074;2022-12-10T00:41:20;0.00;99.90
2465;DHT22;1244;54.326;10.074;2022-12-10T00:43:46;0.00;99.90
2465;DHT22;1244;54.326;10.074;2022-12-10T00:46:13;0.00;99.90
2465;DHT22;1244;54.326;10.074;2022-12-10T00:48:39;0.00;99.90
2465;DHT22;1244;54.326;10.074;2022-12-10T00:53:34;-0.10;99.90
2465;DHT22;1244;54.326;10.074;2022-12-10T00:56:01;-0.10;99.90
2465;DHT22;1244;54.326;10.074;2022-12-10T00:58:28;-0.10;99.90
2465;DHT22;1244;54.326;10.074;2022-12-10T01:01:01;-0.20;99.90
2465;DHT22;1244;54.326;10.074;2022-12-10T01:03:30;-0.20;99.90
2465;DHT22;1244;54.326;10.074;2022-12-10T01:05:56;-0.20;99.90
2465;DHT22;1244;54.326;10.074;2022-12-10T01:08:21;-0.20;99.90
2465;DHT22;1244;54.326;10.074;2022-12-10T01:10:52;-0.20;99.90
2465;DHT22;1244;54.326;10.074;2022-12-10T01:13:18;-0.20;99.90
2465;DHT22;1244;54.326;10.074;2022-12-10T01:15:43;-0.20;99.90
2465;DHT22;1244;54.326;10.074;2022-12-10T01:18:09;-0.30;99.90
2465;DHT22;1244;54.326;10.074;2022-12-10T01:20:35;-0.30;99.90
2465;DHT22;1244;54.326;10.074;2022-12-10T01:23:02;-0.30;99.90
2465;DHT22;1244;54.326;10.074;2022-12-10T01:25:27;-0.30;99.90
2465;DHT22;1244;54.326;10.074;2022-12-10T01:27:53;-0.30;99.90
2465;DHT22;1244;54.326;10.074;2022-12-10T01:30:18;-0.40;99.90
2465;DHT22;1244;54.326;10.074;2022-12-10T01:32:43;-0.40;99.90
2465;DHT22;1244;54.326;10.074;2022-12-10T01:35:09;-0.30;99.90
2465;DHT22;1244;54.326;10.074;2022-12-10T01:37:34;-0.30;99.90
2465;DHT22;1244;54.326;10.074;2022-12-10T01:40:00;-0.30;99.90
2465;DHT22;1244;54.326;10.074;2022-12-10T01:42:25;-0.20;99.90
2465;DHT22;1244;54.326;10.074;2022-12-10T01:45:04;-0.20;99.90
2465;DHT22;1244;54.326;10.074;2022-12-10T01:47:31;-0.20;99.90
2465;DHT22;1244;54.326;10.074;2022-12-10T01:49:57;-0.20;99.90
2465;DHT22;1244;54.326;10.074;2022-12-10T01:52:22;-0.20;99.90
2465;DHT22;1244;54.326;10.074;2022-12-10T01:54:48;-0.20;99.90
2465;DHT22;1244;54.326;10.074;2022-12-10T01:57:19;-0.20;99.90
2465;DHT22;1244;54.326;10.074;2022-12-10T01:59:48;-0.20;99.90
2465;DHT22;1244;54.326;10.074;2022-12-10T02:02:40;-0.20;99.90
2465;DHT22;1244;54.326;10.074;2022-12-10T02:10:56;-0.20;99.90
2465;DHT22;1244;54.326;10.074;2022-12-10T02:13:30;-0.30;99.90
2465;DHT22;1244;54.326;10.074;2022-12-10T02:16:04;-0.20;99.90
2465;DHT22;1244;54.326;10.074;2022-12-10T02:18:38;-0.30;99.90
2465;DHT22;1244;54.326;10.074;2022-12-10T02:21:20;-0.20;99.90
2465;DHT22;1244;54.326;10.074;2022-12-10T02:23:52;-0.30;99.90
2465;DHT22;1244;54.326;10.074;2022-12-10T02:26:35;-0.20;99.90
2465;DHT22;1244;54.326;10.074;2022-12-10T02:29:25;-0.20;99.90
2465;DHT22;1244;54.326;10.074;2022-12-10T02:32:09;-0.30;99.90
2465;DHT22;1244;54.326;10.074;2022-12-10T02:34:42;-0.30;99.90
2465;DHT22;1244;54.326;10.074;2022-12-10T02:37:12;-0.30;99.90
2465;DHT22;1244;54.326;10.074;2022-12-10T02:39:44;-0.20;99.90
2465;DHT22;1244;54.326;10.074;2022-12-10T02:42:11;-0.20;99.90
2465;DHT22;1244;54.326;10.074;2022-12-10T02:44:40;-0.20;99.90
2465;DHT22;1244;54.326;10.074;2022-12-10T02:47:07;-0.20;99.90
2465;DHT22;1244;54.326;10.074;2022-12-10T02:49:34;-0.20;99.90
2465;DHT22;1244;54.326;10.074;2022-12-10T02:52:10;-0.30;99.90
2465;DHT22;1244;54.326;10.074;2022-12-10T02:54:43;-0.30;99.90
2465;DHT22;1244;54.326;10.074;2022-12-10T02:57:15;-0.20;99.90
2465;DHT22;1244;54.326;10.074;2022-12-10T03:02:46;-0.20;99.90
2465;DHT22;1244;54.326;10.074;2022-12-10T03:05:33;-0.30;99.90
2465;DHT22;1244;54.326;10.074;2022-12-10T03:11:01;-0.20;99.90
2465;DHT22;1244;54.326;10.074;2022-12-10T03:13:33;-0.20;99.90
2465;DHT22;1244;54.326;10.074;2022-12-10T03:16:01;-0.30;99.90
2465;DHT22;1244;54.326;10.074;2022-12-10T03:18:29;-0.30;99.90
2465;DHT22;1244;54.326;10.074;2022-12-10T03:20:58;-0.20;99.90
2465;DHT22;1244;54.326;10.074;2022-12-10T03:23:28;-0.20;99.90
2465;DHT22;1244;54.326;10.074;2022-12-10T03:25:54;-0.20;99.90
2465;DHT22;1244;54.326;10.074;2022-12-10T03:28:21;-0.20;99.90
2465;DHT22;1244;54.326;10.074;2022-12-10T03:30:48;-0.20;99.90
2465;DHT22;1244;54.326;10.074;2022-12-10T03:33:14;-0.20;99.90
2465;DHT22;1244;54.326;10.074;2022-12-10T03:35:40;-0.20;99.90
2465;DHT22;1244;54.326;10.074;2022-12-10T03:38:07;-0.20;99.90
2465;DHT22;1244;54.326;10.074;2022-12-10T03:40:33;-0.20;99.90
2465;DHT22;1244;54.326;10.074;2022-12-10T03:42:59;-0.20;99.90
2465;DHT22;1244;54.326;10.074;2022-12-10T03:45:24;-0.20;99.90
2465;DHT22;1244;54.326;10.074;2022-12-10T03:47:50;-0.20;99.90
2465;DHT22;1244;54.326;10.074;2022-12-10T03:50:16;-0.20;99.90
2465;DHT22;1244;54.326;10.074;2022-12-10T03:52:42;-0.20;99.90
2465;DHT22;1244;54.326;10.074;2022-12-10T03:55:07;-0.20;99.90
2465;DHT22;1244;54.326;10.074;2022-12-10T03:57:34;-0.20;99.90
2465;DHT22;1244;54.326;10.074;2022-12-10T04:00:00;-0.20;99.90
2465;DHT22;1244;54.326;10.074;2022-12-10T04:02:25;-0.20;99.90
2465;DHT22;1244;54.326;10.074;2022-12-10T04:04:51;-0.20;99.90
2465;DHT22;1244;54.326;10.074;2022-12-10T04:07:16;-0.20;99.90
2465;DHT22;1244;54.326;10.074;2022-12-10T04:09:42;-0.20;99.90
2465;DHT22;1244;54.326;10.074;2022-12-10T04:12:07;-0.20;99.90
2465;DHT22;1244;54.326;10.074;2022-12-10T04:14:33;-0.20;99.90
2465;DHT22;1244;54.326;10.074;2022-12-10T04:17:17;-0.20;99.90
2465;DHT22;1244;54.326;10.074;2022-12-10T04:19:43;-0.20;99.90
2465;DHT22;1244;54.326;10.074;2022-12-10T04:22:09;-0.20;99.90
2465;DHT22;1244;54.326;10.074;2022-12-10T04:24:53;-0.20;99.90
2465;DHT22;1244;54.326;10.074;2022-12-10T04:27:38;-0.20;99.90
2465;DHT22;1244;54.326;10.074;2022-12-10T04:30:07;-0.20;99.90
2465;DHT22;1244;54.326;10.074;2022-12-10T04:32:32;-0.20;99.90
2465;DHT22;1244;54.326;10.074;2022-12-10T04:34:58;-0.10;99.90
2465;DHT22;1244;54.326;10.074;2022-12-10T04:37:24;-0.20;99.90
2465;DHT22;1244;54.326;10.074;2022-12-10T04:39:50;-0.20;99.90
2465;DHT22;1244;54.326;10.074;2022-12-10T04:42:16;-0.20;99.90
2465;DHT22;1244;54.326;10.074;2022-12-10T04:44:42;-0.10;99.90
2465;DHT22;1244;54.326;10.074;2022-12-10T04:47:09;-0.10;99.90
2465;DHT22;1244;54.326;10.074;2022-12-10T04:49:35;-0.20;99.90
2465;DHT22;1244;54.326;10.074;2022-12-10T04:52:01;-0.20;99.90
2465;DHT22;1244;54.326;10.074;2022-12-10T04:54:27;-0.20;99.90
2465;DHT22;1244;54.326;10.074;2022-12-10T04:56:53;-0.20;99.90
2465;DHT22;1244;54.326;10.074;2022-12-10T04:59:19;-0.20;99.90
2465;DHT22;1244;54.326;10.074;2022-12-10T05:01:45;-0.10;99.90
2465;DHT22;1244;54.326;10.074;2022-12-10T05:04:12;-0.20;99.90
2465;DHT22;1244;54.326;10.074;2022-12-10T05:06:39;-0.20;99.90
2465;DHT22;1244;54.326;10.074;2022-12-10T05:09:05;-0.10;99.90
2465;DHT22;1244;54.326;10.074;2022-12-10T05:11:32;-0.20;99.90
2465;DHT22;1244;54.326;10.074;2022-12-10T05:13:58;-0.10;99.90
2465;DHT22;1244;54.326;10.074;2022-12-10T05:16:25;-0.10;99.90
2465;DHT22;1244;54.326;10.074;2022-12-10T05:18:52;-0.10;99.90
2465;DHT22;1244;54.326;10.074;2022-12-10T05:21:19;-0.10;99.90
2465;DHT22;1244;54.326;10.074;2022-12-10T05:23:47;-0.10;99.90
2465;DHT22;1244;54.326;10.074;2022-12-10T05:26:16;-0.20;99.90
2465;DHT22;1244;54.326;10.074;2022-12-10T05:28:48;-0.20;99.90
2465;DHT22;1244;54.326;10.074;2022-12-10T05:31:24;-0.20;99.90
2465;DHT22;1244;54.326;10.074;2022-12-10T05:33:50;-0.20;99.90
2465;DHT22;1244;54.326;10.074;2022-12-10T05:36:17;-0.20;99.90
2465;DHT22;1244;54.326;10.074;2022-12-10T05:38:44;-0.20;99.90
2465;DHT22;1244;54.326;10.074;2022-12-10T05:41:16;-0.20;99.90
2465;DHT22;1244;54.326;10.074;2022-12-10T05:43:42;-0.20;99.90
2465;DHT22;1244;54.326;10.074;2022-12-10T05:46:29;-0.20;99.90
2465;DHT22;1244;54.326;10.074;2022-12-10T05:48:55;-0.20;99.90
2465;DHT22;1244;54.326;10.074;2022-12-10T05:51:23;-0.20;99.90
2465;DHT22;1244;54.326;10.074;2022-12-10T05:53:50;-0.20;99.90
2465;DHT22;1244;54.326;10.074;2022-12-10T05:56:18;-0.20;99.90
2465;DHT22;1244;54.326;10.074;2022-12-10T05:58:45;-0.20;99.90
2465;DHT22;1244;54.326;10.074;2022-12-10T06:01:14;-0.10;99.90
2465;DHT22;1244;54.326;10.074;2022-12-10T06:03:40;-0.20;99.90
2465;DHT22;1244;54.326;10.074;2022-12-10T06:06:05;-0.10;99.90
2465;DHT22;1244;54.326;10.074;2022-12-10T06:08:31;-0.20;99.90
2465;DHT22;1244;54.326;10.074;2022-12-10T06:11:04;-0.20;99.90
2465;DHT22;1244;54.326;10.074;2022-12-10T06:13:30;-0.20;99.90
2465;DHT22;1244;54.326;10.074;2022-12-10T06:15:55;-0.10;99.90
2465;DHT22;1244;54.326;10.074;2022-12-10T06:18:21;-0.20;99.90
2465;DHT22;1244;54.326;10.074;2022-12-10T06:20:47;-0.10;99.90
2465;DHT22;1244;54.326;10.074;2022-12-10T06:23:12;-0.30;99.90
2465;DHT22;1244;54.326;10.074;2022-12-10T06:25:39;-0.40;99.90
2465;DHT22;1244;54.326;10.074;2022-12-10T06:28:05;-0.30;99.90
2465;DHT22;1244;54.326;10.074;2022-12-10T06:30:31;-0.30;99.90
2465;DHT22;1244;54.326;10.074;2022-12-10T06:32:57;-0.30;99.90
2465;DHT22;1244;54.326;10.074;2022-12-10T06:35:23;-0.20;99.90
2465;DHT22;1244;54.326;10.074;2022-12-10T06:37:49;-0.20;99.90
2465;DHT22;1244;54.326;10.074;2022-12-10T06:40:14;-0.20;99.90
2465;DHT22;1244;54.326;10.074;2022-12-10T06:42:40;-0.30;99.90
2465;DHT22;1244;54.326;10.074;2022-12-10T06:45:06;-0.20;99.90
2465;DHT22;1244;54.326;10.074;2022-12-10T06:47:31;-0.20;99.90
2465;DHT22;1244;54.326;10.074;2022-12-10T06:49:57;-0.20;99.90
2465;DHT22;1244;54.326;10.074;2022-12-10T06:52:22;-0.20;99.90
2465;DHT22;1244;54.326;10.074;2022-12-10T06:54:48;-0.10;99.90
2465;DHT22;1244;54.326;10.074;2022-12-10T06:57:13;-0.10;99.90
2465;DHT22;1244;54.326;10.074;2022-12-10T06:59:39;-0.20;99.90
2465;DHT22;1244;54.326;10.074;2022-12-10T07:02:04;-0.30;99.90
2465;DHT22;1244;54.326;10.074;2022-12-10T07:04:30;-0.30;99.90
2465;DHT22;1244;54.326;10.074;2022-12-10T07:06:55;-0.40;99.90
2465;DHT22;1244;54.326;10.074;2022-12-10T07:09:21;-0.40;99.90
2465;DHT22;1244;54.326;10.074;2022-12-10T07:11:47;-0.50;99.90
2465;DHT22;1244;54.326;10.074;2022-12-10T07:14:15;-0.60;99.90
2465;DHT22;1244;54.326;10.074;2022-12-10T07:16:41;-0.60;99.90
2465;DHT22;1244;54.326;10.074;2022-12-10T07:19:10;-0.60;99.90
2465;DHT22;1244;54.326;10.074;2022-12-10T07:21:37;-0.60;99.90
2465;DHT22;1244;54.326;10.074;2022-12-10T07:24:06;-0.60;99.90
2465;DHT22;1244;54.326;10.074;2022-12-10T07:26:34;-0.70;99.90
2465;DHT22;1244;54.326;10.074;2022-12-10T07:29:01;-0.60;99.90
2465;DHT22;1244;54.326;10.074;2022-12-10T07:31:27;-0.60;99.90
2465;DHT22;1244;54.326;10.074;2022-12-10T07:33:54;-0.60;99.90
2465;DHT22;1244;54.326;10.074;2022-12-10T07:36:21;-0.60;99.90
2465;DHT22;1244;54.326;10.074;2022-12-10T07:38:54;-0.60;99.90
2465;DHT22;1244;54.326;10.074;2022-12-10T07:41:21;-0.60;99.90
2465;DHT22;1244;54.326;10.074;2022-12-10T07:43:47;-0.60;99.90
2465;DHT22;1244;54.326;10.074;2022-12-10T07:46:19;-0.70;99.90
2465;DHT22;1244;54.326;10.074;2022-12-10T07:48:45;-0.70;99.90
2465;DHT22;1244;54.326;10.074;2022-12-10T07:51:11;-0.70;99.90
2465;DHT22;1244;54.326;10.074;2022-12-10T07:53:38;-0.60;99.90
2465;DHT22;1244;54.326;10.074;2022-12-10T07:56:04;-0.70;99.90
2465;DHT22;1244;54.326;10.074;2022-12-10T07:58:29;-0.60;99.90
2465;DHT22;1244;54.326;10.074;2022-12-10T08:00:55;-0.60;99.90
2465;DHT22;1244;54.326;10.074;2022-12-10T08:03:20;-0.60;99.90
2465;DHT22;1244;54.326;10.074;2022-12-10T08:05:46;-0.70;99.90
2465;DHT22;1244;54.326;10.074;2022-12-10T08:08:11;-0.70;99.90
2465;DHT22;1244;54.326;10.074;2022-12-10T08:10:39;-0.70;99.90
2465;DHT22;1244;54.326;10.074;2022-12-10T08:13:05;-0.60;99.90
2465;DHT22;1244;54.326;10.074;2022-12-10T08:15:32;-0.60;99.90
2465;DHT22;1244;54.326;10.074;2022-12-10T08:17:57;-0.60;99.90
2465;DHT22;1244;54.326;10.074;2022-12-10T08:20:24;-0.50;99.90
2465;DHT22;1244;54.326;10.074;2022-12-10T08:22:50;-0.60;99.90
2465;DHT22;1244;54.326;10.074;2022-12-10T08:25:15;-0.60;99.90
2465;DHT22;1244;54.326;10.074;2022-12-10T08:27:41;-0.70;99.90
2465;DHT22;1244;54.326;10.074;2022-12-10T08:30:07;-0.80;99.90
2465;DHT22;1244;54.326;10.074;2022-12-10T08:32:32;-0.80;99.90
2465;DHT22;1244;54.326;10.074;2022-12-10T08:34:58;-0.90;99.90
2465;DHT22;1244;54.326;10.074;2022-12-10T08:37:23;-0.80;99.90
2465;DHT22;1244;54.326;10.074;2022-12-10T08:39:49;-0.70;99.90
2465;DHT22;1244;54.326;10.074;2022-12-10T08:42:15;-0.70;99.90
2465;DHT22;1244;54.326;10.074;2022-12-10T08:44:40;-0.70;99.90
2465;DHT22;1244;54.326;10.074;2022-12-10T08:47:06;-0.80;99.90
2465;DHT22;1244;54.326;10.074;2022-12-10T08:49:31;-0.80;99.90
2465;DHT22;1244;54.326;10.074;2022-12-10T08:51:57;-0.80;99.90
2465;DHT22;1244;54.326;10.074;2022-12-10T08:54:22;-0.70;99.90
2465;DHT22;1244;54.326;10.074;2022-12-10T08:56:48;-0.80;99.90
2465;DHT22;1244;54.326;10.074;2022-12-10T08:59:13;-0.80;99.90
2465;DHT22;1244;54.326;10.074;2022-12-10T09:01:38;-0.80;99.90
2465;DHT22;1244;54.326;10.074;2022-12-10T09:04:04;-0.80;99.90
2465;DHT22;1244;54.326;10.074;2022-12-10T09:06:30;-0.90;99.90
2465;DHT22;1244;54.326;10.074;2022-12-10T09:08:56;-0.90;99.90
2465;DHT22;1244;54.326;10.074;2022-12-10T09:11:27;-0.90;99.90
2465;DHT22;1244;54.326;10.074;2022-12-10T09:13:53;-1.00;99.90
2465;DHT22;1244;54.326;10.074;2022-12-10T09:16:19;-1.00;99.90
2465;DHT22;1244;54.326;10.074;2022-12-10T09:18:44;-1.00;99.90
2465;DHT22;1244;54.326;10.074;2022-12-10T09:21:14;-0.90;99.90
2465;DHT22;1244;54.326;10.074;2022-12-10T09:23:41;-0.90;99.90
2465;DHT22;1244;54.326;10.074;2022-12-10T09:26:08;-0.90;99.90
2465;DHT22;1244;54.326;10.074;2022-12-10T09:28:35;-0.90;99.90
2465;DHT22;1244;54.326;10.074;2022-12-10T09:31:01;-0.80;99.90
2465;DHT22;1244;54.326;10.074;2022-12-10T09:33:27;-0.90;99.90
2465;DHT22;1244;54.326;10.074;2022-12-10T09:35:53;-1.00;99.90
2465;DHT22;1244;54.326;10.074;2022-12-10T09:38:41;-0.90;99.90
2465;DHT22;1244;54.326;10.074;2022-12-10T09:44:38;-0.90;99.90
2465;DHT22;1244;54.326;10.074;2022-12-10T09:47:07;-0.80;99.90
2465;DHT22;1244;54.326;10.074;2022-12-10T09:52:41;-0.80;99.90
2465;DHT22;1244;54.326;10.074;2022-12-10T09:57:59;-0.90;99.90
2465;DHT22;1244;54.326;10.074;2022-12-10T10:00:38;-0.90;99.90
2465;DHT22;1244;54.326;10.074;2022-12-10T10:03:05;-0.90;99.90
2465;DHT22;1244;54.326;10.074;2022-12-10T10:05:35;-0.90;99.90
2465;DHT22;1244;54.326;10.074;2022-12-10T10:08:12;-0.80;99.90
2465;DHT22;1244;54.326;10.074;2022-12-10T10:10:39;-0.80;99.90
2465;DHT22;1244;54.326;10.074;2022-12-10T10:15:36;-0.90;99.90
2465;DHT22;1244;54.326;10.074;2022-12-10T10:18:09;-1.00;99.90
2465;DHT22;1244;54.326;10.074;2022-12-10T10:20:37;-1.00;99.90
2465;DHT22;1244;54.326;10.074;2022-12-10T10:23:03;-1.10;99.90
2465;DHT22;1244;54.326;10.074;2022-12-10T10:25:28;-1.10;99.90
2465;DHT22;1244;54.326;10.074;2022-12-10T10:27:55;-1.00;99.90
2465;DHT22;1244;54.326;10.074;2022-12-10T10:30:22;-1.10;99.90
2465;DHT22;1244;54.326;10.074;2022-12-10T10:32:52;-1.00;99.90
2465;DHT22;1244;54.326;10.074;2022-12-10T10:35:22;-0.90;99.90
2465;DHT22;1244;54.326;10.074;2022-12-10T10:37:48;-1.00;99.90
2465;DHT22;1244;54.326;10.074;2022-12-10T10:40:25;-0.90;99.90
2465;DHT22;1244;54.326;10.074;2022-12-10T10:42:54;-0.90;99.90
2465;DHT22;1244;54.326;10.074;2022-12-10T10:45:39;-0.90;99.90
2465;DHT22;1244;54.326;10.074;2022-12-10T10:48:20;-0.80;99.90
2465;DHT22;1244;54.326;10.074;2022-12-10T10:51:04;-0.70;99.90
2465;DHT22;1244;54.326;10.074;2022-12-10T10:53:31;-0.80;99.90
2465;DHT22;1244;54.326;10.074;2022-12-10T10:56:14;-0.90;99.90
2465;DHT22;1244;54.326;10.074;2022-12-10T10:59:01;-0.90;99.90
2465;DHT22;1244;54.326;10.074;2022-12-10T11:01:49;-1.00;99.90
2465;DHT22;1244;54.326;10.074;2022-12-10T11:04:27;-0.90;99.90
2465;DHT22;1244;54.326;10.074;2022-12-10T11:06:55;-0.90;99.90
2465;DHT22;1244;54.326;10.074;2022-12-10T11:09:26;-0.90;99.90
2465;DHT22;1244;54.326;10.074;2022-12-10T11:12:05;-1.10;99.90
2465;DHT22;1244;54.326;10.074;2022-12-10T11:14:33;-1.00;99.90
2465;DHT22;1244;54.326;10.074;2022-12-10T11:19:35;-1.10;99.90
2465;DHT22;1244;54.326;10.074;2022-12-10T11:22:25;-1.10;99.90
2465;DHT22;1244;54.326;10.074;2022-12-10T11:24:51;-1.00;99.90
2465;DHT22;1244;54.326;10.074;2022-12-10T11:27:37;-1.00;99.90
2465;DHT22;1244;54.326;10.074;2022-12-10T11:30:12;-0.90;99.90
2465;DHT22;1244;54.326;10.074;2022-12-10T11:33:15;-0.90;99.90
2465;DHT22;1244;54.326;10.074;2022-12-10T11:39:10;-0.90;99.90
2465;DHT22;1244;54.326;10.074;2022-12-10T11:42:15;-0.90;99.90
2465;DHT22;1244;54.326;10.074;2022-12-10T11:45:02;-0.90;99.90
2465;DHT22;1244;54.326;10.074;2022-12-10T11:50:42;-1.20;99.90
2465;DHT22;1244;54.326;10.074;2022-12-10T11:58:48;-1.10;99.90
2465;DHT22;1244;54.326;10.074;2022-12-10T12:01:31;-1.10;99.90
2465;DHT22;1244;54.326;10.074;2022-12-10T12:07:32;-1.10;99.90
2465;DHT22;1244;54.326;10.074;2022-12-10T12:13:25;-1.30;99.90
2465;DHT22;1244;54.326;10.074;2022-12-10T12:16:01;-1.20;99.90
2465;DHT22;1244;54.326;10.074;2022-12-10T12:18:52;-1.30;99.90
2465;DHT22;1244;54.326;10.074;2022-12-10T12:21:22;-1.20;99.90
2465;DHT22;1244;54.326;10.074;2022-12-10T12:24:22;-1.10;99.90
2465;DHT22;1244;54.326;10.074;2022-12-10T12:30:03;-1.20;99.90
2465;DHT22;1244;54.326;10.074;2022-12-10T12:38:31;-1.10;99.90
2465;DHT22;1244;54.326;10.074;2022-12-10T12:41:16;-1.00;99.90
2465;DHT22;1244;54.326;10.074;2022-12-10T12:46:42;-1.20;99.90
2465;DHT22;1244;54.326;10.074;2022-12-10T12:49:37;-1.20;99.90
2465;DHT22;1244;54.326;10.074;2022-12-10T12:54:42;-1.20;99.90
2465;DHT22;1244;54.326;10.074;2022-12-10T13:00:11;-1.20;99.90
2465;DHT22;1244;54.326;10.074;2022-12-10T13:05:37;-1.20;99.90
2465;DHT22;1244;54.326;10.074;2022-12-10T13:19:29;-1.30;99.90
2465;DHT22;1244;54.326;10.074;2022-12-10T13:22:08;-1.30;99.90
2465;DHT22;1244;54.326;10.074;2022-12-10T13:27:36;-1.20;99.90
2465;DHT22;1244;54.326;10.074;2022-12-10T13:39:33;-1.30;99.90
2465;DHT22;1244;54.326;10.074;2022-12-10T13:51:18;-1.40;99.90
2465;DHT22;1244;54.326;10.074;2022-12-10T13:59:52;-1.60;99.90
2465;DHT22;1244;54.326;10.074;2022-12-10T14:08:28;-1.50;99.90
2465;DHT22;1244;54.326;10.074;2022-12-10T14:10:56;-1.50;99.90
2465;DHT22;1244;54.326;10.074;2022-12-10T14:13:34;-1.60;99.90
2465;DHT22;1244;54.326;10.074;2022-12-10T14:16:44;-1.60;99.90
2465;DHT22;1244;54.326;10.074;2022-12-10T14:19:06;-1.60;99.90
2465;DHT22;1244;54.326;10.074;2022-12-10T14:21:40;-1.60;99.90
2465;DHT22;1244;54.326;10.074;2022-12-10T14:27:47;-1.40;99.90
2465;DHT22;1244;54.326;10.074;2022-12-10T14:30:24;-1.50;99.90
2465;DHT22;1244;54.326;10.074;2022-12-10T14:32:54;-1.50;99.90
2465;DHT22;1244;54.326;10.074;2022-12-10T14:35:24;-1.70;99.90
2465;DHT22;1244;54.326;10.074;2022-12-10T14:37:52;-1.70;99.90
2465;DHT22;1244;54.326;10.074;2022-12-10T14:40:45;-1.70;99.90
2465;DHT22;1244;54.326;10.074;2022-12-10T14:43:24;-1.60;99.90
2465;DHT22;1244;54.326;10.074;2022-12-10T14:45:54;-1.60;99.90
2465;DHT22;1244;54.326;10.074;2022-12-10T14:48:40;-1.50;99.90
2465;DHT22;1244;54.326;10.074;2022-12-10T14:51:14;-1.60;99.90
2465;DHT22;1244;54.326;10.074;2022-12-10T14:53:41;-1.60;99.90
2465;DHT22;1244;54.326;10.074;2022-12-10T14:56:08;-1.70;99.90
2465;DHT22;1244;54.326;10.074;2022-12-10T14:58:43;-1.60;99.90
2465;DHT22;1244;54.326;10.074;2022-12-10T15:01:17;-1.60;99.90
2465;DHT22;1244;54.326;10.074;2022-12-10T15:03:51;-1.50;99.90
2465;DHT22;1244;54.326;10.074;2022-12-10T15:06:38;-1.50;99.90
2465;DHT22;1244;54.326;10.074;2022-12-10T15:09:09;-1.50;99.90
2465;DHT22;1244;54.326;10.074;2022-12-10T15:11:34;-1.50;99.90
2465;DHT22;1244;54.326;10.074;2022-12-10T15:14:02;-1.40;99.90
2465;DHT22;1244;54.326;10.074;2022-12-10T15:16:41;-1.40;99.90
2465;DHT22;1244;54.326;10.074;2022-12-10T15:21:57;-1.40;99.90
2465;DHT22;1244;54.326;10.074;2022-12-10T15:27:00;-1.40;99.90
2465;DHT22;1244;54.326;10.074;2022-12-10T15:31:55;-1.30;99.90
2465;DHT22;1244;54.326;10.074;2022-12-10T15:34:26;-1.40;99.90
2465;DHT22;1244;54.326;10.074;2022-12-10T15:36:55;-1.30;99.90
2465;DHT22;1244;54.326;10.074;2022-12-10T15:39:26;-1.30;99.90
2465;DHT22;1244;54.326;10.074;2022-12-10T15:41:54;-1.20;99.90
2465;DHT22;1244;54.326;10.074;2022-12-10T15:49:37;-1.30;99.90
2465;DHT22;1244;54.326;10.074;2022-12-10T15:52:03;-1.20;99.90
2465;DHT22;1244;54.326;10.074;2022-12-10T15:54:32;-1.40;99.90
2465;DHT22;1244;54.326;10.074;2022-12-10T15:56:59;-1.40;99.90
2465;DHT22;1244;54.326;10.074;2022-12-10T15:59:24;-1.40;99.90
2465;DHT22;1244;54.326;10.074;2022-12-10T16:01:50;-1.40;99.90
2465;DHT22;1244;54.326;10.074;2022-12-10T16:04:15;-1.30;99.90
2465;DHT22;1244;54.326;10.074;2022-12-10T16:06:41;-1.30;99.90
2465;DHT22;1244;54.326;10.074;2022-12-10T16:09:08;-1.40;99.90
2465;DHT22;1244;54.326;10.074;2022-12-10T16:11:34;-1.40;99.90
2465;DHT22;1244;54.326;10.074;2022-12-10T16:14:00;-1.40;99.90
2465;DHT22;1244;54.326;10.074;2022-12-10T16:16:27;-1.40;99.90
2465;DHT22;1244;54.326;10.074;2022-12-10T16:18:53;-1.40;99.90
2465;DHT22;1244;54.326;10.074;2022-12-10T16:21:18;-1.30;99.90
2465;DHT22;1244;54.326;10.074;2022-12-10T16:23:44;-1.40;99.90
2465;DHT22;1244;54.326;10.074;2022-12-10T16:26:19;-1.40;99.90
2465;DHT22;1244;54.326;10.074;2022-12-10T16:28:46;-1.30;99.90
2465;DHT22;1244;54.326;10.074;2022-12-10T16:31:16;-1.30;99.90
2465;DHT22;1244;54.326;10.074;2022-12-10T16:33:42;-1.40;99.90
2465;DHT22;1244;54.326;10.074;2022-12-10T16:36:10;-1.30;99.90
2465;DHT22;1244;54.326;10.074;2022-12-10T16:38:39;-1.30;99.90
2465;DHT22;1244;54.326;10.074;2022-12-10T16:41:52;-1.30;99.90
2465;DHT22;1244;54.326;10.074;2022-12-10T16:44:23;-1.40;99.90
2465;DHT22;1244;54.326;10.074;2022-12-10T16:46:49;-1.40;99.90
2465;DHT22;1244;54.326;10.074;2022-12-10T16:49:14;-1.40;99.90
2465;DHT22;1244;54.326;10.074;2022-12-10T16:51:40;-1.40;99.90
2465;DHT22;1244;54.326;10.074;2022-12-10T16:54:11;-1.40;99.90
2465;DHT22;1244;54.326;10.074;2022-12-10T16:56:39;-1.40;99.90
2465;DHT22;1244;54.326;10.074;2022-12-10T16:59:04;-1.40;99.90
2465;DHT22;1244;54.326;10.074;2022-12-10T17:01:30;-1.30;99.90
2465;DHT22;1244;54.326;10.074;2022-12-10T17:03:57;-1.40;99.90
2465;DHT22;1244;54.326;10.074;2022-12-10T17:06:24;-1.40;99.90
2465;DHT22;1244;54.326;10.074;2022-12-10T17:08:49;-1.40;99.90
2465;DHT22;1244;54.326;10.074;2022-12-10T17:11:25;-1.30;99.90
2465;DHT22;1244;54.326;10.074;2022-12-10T17:16:46;-1.30;99.90
2465;DHT22;1244;54.326;10.074;2022-12-10T17:19:12;-1.40;99.90
2465;DHT22;1244;54.326;10.074;2022-12-10T17:21:38;-1.50;99.90
2465;DHT22;1244;54.326;10.074;2022-12-10T17:24:04;-1.50;99.90
2465;DHT22;1244;54.326;10.074;2022-12-10T17:26:32;-1.40;99.90
2465;DHT22;1244;54.326;10.074;2022-12-10T17:29:11;-1.40;99.90
2465;DHT22;1244;54.326;10.074;2022-12-10T17:31:38;-1.40;99.90
2465;DHT22;1244;54.326;10.074;2022-12-10T17:34:05;-1.50;99.90
2465;DHT22;1244;54.326;10.074;2022-12-10T17:36:50;-1.50;99.90
2465;DHT22;1244;54.326;10.074;2022-12-10T17:39:20;-1.50;99.90
2465;DHT22;1244;54.326;10.074;2022-12-10T17:41:55;-1.50;99.90
2465;DHT22;1244;54.326;10.074;2022-12-10T17:44:23;-1.50;99.90
2465;DHT22;1244;54.326;10.074;2022-12-10T17:46:49;-1.50;99.90
2465;DHT22;1244;54.326;10.074;2022-12-10T17:49:15;-1.50;99.90
2465;DHT22;1244;54.326;10.074;2022-12-10T17:51:42;-1.50;99.90
2465;DHT22;1244;54.326;10.074;2022-12-10T17:54:08;-1.50;99.90
2465;DHT22;1244;54.326;10.074;2022-12-10T17:56:33;-1.50;99.90
2465;DHT22;1244;54.326;10.074;2022-12-10T17:59:02;-1.50;99.90
2465;DHT22;1244;54.326;10.074;2022-12-10T18:01:28;-1.50;99.90
2465;DHT22;1244;54.326;10.074;2022-12-10T18:03:55;-1.40;99.90
2465;DHT22;1244;54.326;10.074;2022-12-10T18:06:26;-1.40;99.90
2465;DHT22;1244;54.326;10.074;2022-12-10T18:08:59;-1.40;99.90
2465;DHT22;1244;54.326;10.074;2022-12-10T18:11:34;-1.50;99.90
2465;DHT22;1244;54.326;10.074;2022-12-10T18:14:00;-1.50;99.90
2465;DHT22;1244;54.326;10.074;2022-12-10T18:16:30;-1.50;99.90